Time;durP1;ratioP1;P1;durP2;ratioP2;P2;SDS_P1;SDS_P2;PMS_P1;PMS_P2;Temp;Humidity;BMP_temperature;BMP_pressure;BME280_temperature;BME280_humidity;BME280_pressure;Samples;Min_cycle;Max_cycle;Signal;HPM_P1;HPM_P2
2023/04/01 00:02:18;;;;;;;5.70;1.70;;;;;;;;;;4994725;28;20415;-88
2023/04/01 00:04:45;;;;;;;5.97;1.93;;;;;;;;;;5009715;28;20431;-88
2023/04/01 00:07:25;;;;;;;5.97;2.83;;;;;;;;;;4990668;28;20456;-89
2023/04/01 00:09:52;;;;;;;5.40;2.23;;;;;;;;;;4991273;28;20888;-88
2023/04/01 00:12:27;;;;;;;3.33;2.17;;;;;;;;;;4992890;28;20449;-90
2023/04/01 00:14:59;;;;;;;4.10;2.33;;;;;;;;;;4994009;28;20420;-89
2023/04/01 00:17:45;;;;;;;5.00;2.03;;;;;;;;;;4993963;28;20418;-88
2023/04/01 00:20:12;;;;;;;8.47;2.30;;;;;;;;;;5008739;28;20430;-84
2023/04/01 00:22:38;;;;;;;2.80;1.87;;;;;;;;;;5008649;28;20886;-83
2023/04/01 00:25:07;;;;;;;3.50;1.77;;;;;;;;;;4993597;28;20569;-84
2023/04/01 00:27:35;;;;;;;3.07;1.67;;;;;;;;;;4993535;28;20406;-85
2023/04/01 00:30:07;;;;;;;5.03;2.80;;;;;;;;;;4991902;28;20416;-84
2023/04/01 00:32:35;;;;;;;4.23;1.50;;;;;;;;;;4993923;28;20522;-83
2023/04/01 00:35:04;;;;;;;6.80;2.43;;;;;;;;;;4993510;28;20764;-84
2023/04/01 00:37:47;;;;;;;7.90;2.13;;;;;;;;;;4994017;28;20426;-85
2023/04/01 00:40:35;;;;;;;3.20;1.90;;;;;;;;;;4996759;28;20604;-85
2023/04/01 00:43:04;;;;;;;5.10;1.73;;;;;;;;;;5012621;28;20421;-83
2023/04/01 00:45:33;;;;;;;4.60;1.63;;;;;;;;;;4996970;28;20418;-85
2023/04/01 00:48:21;;;;;;;6.70;2.20;;;;;;;;;;4997419;28;20779;-86
2023/04/01 00:51:13;;;;;;;2.17;1.37;;;;;;;;;;4997102;28;20426;-86
2023/04/01 00:53:47;;;;;;;6.27;1.90;;;;;;;;;;4997321;28;20884;-83
2023/04/01 00:56:16;;;;;;;2.90;1.37;;;;;;;;;;4997361;28;20775;-86
2023/04/01 00:58:44;;;;;;;5.77;2.30;;;;;;;;;;4996106;28;21080;-87
2023/04/01 01:01:10;;;;;;;3.73;1.60;;;;;;;;;;4996866;28;20435;-85
2023/04/01 01:03:40;;;;;;;5.87;2.13;;;;;;;;;;4996073;28;20423;-85
2023/04/01 01:06:27;;;;;;;3.80;2.00;;;;;;;;;;4994932;28;20429;-86
2023/04/01 01:09:00;;;;;;;5.20;2.07;;;;;;;;;;4995770;28;20422;-85
2023/04/01 01:11:33;;;;;;;3.63;1.63;;;;;;;;;;4996952;28;20505;-84
2023/04/01 01:14:05;;;;;;;2.80;1.70;;;;;;;;;;4995050;28;20446;-84
2023/04/01 01:16:38;;;;;;;7.10;2.40;;;;;;;;;;4995352;28;20429;-84
2023/04/01 01:19:10;;;;;;;3.80;2.20;;;;;;;;;;4995222;28;20559;-84
2023/04/01 01:21:42;;;;;;;6.23;1.50;;;;;;;;;;4996358;28;20745;-83
2023/04/01 01:24:27;;;;;;;3.97;1.73;;;;;;;;;;4995169;28;20448;-83
2023/04/01 01:26:53;;;;;;;9.83;2.03;;;;;;;;;;4994778;28;20422;-83
2023/04/01 01:29:38;;;;;;;4.13;1.80;;;;;;;;;;4996053;28;20419;-85
2023/04/01 01:32:23;;;;;;;3.60;1.30;;;;;;;;;;4995019;28;20853;-83
2023/04/01 01:35:07;;;;;;;3.67;1.97;;;;;;;;;;4993115;28;20431;-85
2023/04/01 01:37:34;;;;;;;2.93;1.10;;;;;;;;;;4994826;28;20489;-85
2023/04/01 01:40:02;;;;;;;3.50;0.97;;;;;;;;;;4993864;28;20854;-83
2023/04/01 01:42:29;;;;;;;5.80;2.00;;;;;;;;;;4994798;28;20919;-82
2023/04/01 01:44:57;;;;;;;4.23;1.40;;;;;;;;;;4995706;28;20419;-81
2023/04/01 01:47:25;;;;;;;3.37;1.70;;;;;;;;;;4996037;28;20411;-82
2023/04/01 01:49:52;;;;;;;5.47;2.40;;;;;;;;;;4994511;28;20835;-80
2023/04/01 01:52:18;;;;;;;4.90;1.93;;;;;;;;;;4995796;28;20458;-83
2023/04/01 01:54:49;;;;;;;7.33;2.13;;;;;;;;;;4995729;28;20890;-79
2023/04/01 01:57:15;;;;;;;6.00;1.80;;;;;;;;;;4996095;28;20423;-86
2023/04/01 01:59:44;;;;;;;4.03;1.60;;;;;;;;;;4994288;28;20482;-86
2023/04/01 02:02:11;;;;;;;2.90;1.23;;;;;;;;;;4995902;28;20566;-85
2023/04/01 02:04:39;;;;;;;1.43;1.03;;;;;;;;;;4995319;28;20855;-86
2023/04/01 02:07:10;;;;;;;2.60;1.07;;;;;;;;;;4996229;28;20886;-86
2023/04/01 02:09:43;;;;;;;2.50;1.10;;;;;;;;;;4994869;28;20976;-83
2023/04/01 02:12:13;;;;;;;5.60;1.57;;;;;;;;;;4994386;28;20459;-85
2023/04/01 02:14:47;;;;;;;3.20;1.67;;;;;;;;;;4994391;28;20846;-84
2023/04/01 02:17:21;;;;;;;4.83;1.70;;;;;;;;;;4994294;28;20421;-83
2023/04/01 02:19:52;;;;;;;3.63;1.10;;;;;;;;;;4995326;28;20981;-80
2023/04/01 02:22:21;;;;;;;4.33;1.87;;;;;;;;;;4994089;28;20421;-80
2023/04/01 02:24:48;;;;;;;3.80;1.67;;;;;;;;;;4994361;28;20950;-82
2023/04/01 02:27:14;;;;;;;3.73;1.63;;;;;;;;;;4995623;28;20767;-81
2023/04/01 02:29:40;;;;;;;2.67;1.03;;;;;;;;;;4995105;28;20417;-82
2023/04/01 02:32:06;;;;;;;4.20;1.23;;;;;;;;;;4995484;28;20418;-81
2023/04/01 02:34:33;;;;;;;3.40;1.47;;;;;;;;;;4995479;28;20413;-83
2023/04/01 02:36:59;;;;;;;3.23;1.20;;;;;;;;;;4995249;28;20509;-81
2023/04/01 02:39:26;;;;;;;3.93;1.37;;;;;;;;;;4995140;28;20573;-88
2023/04/01 02:41:53;;;;;;;6.80;1.60;;;;;;;;;;4994777;28;20414;-90
2023/04/01 02:44:19;;;;;;;8.77;1.53;;;;;;;;;;4993978;28;20517;-83
2023/04/01 02:46:45;;;;;;;2.27;0.90;;;;;;;;;;4994963;28;20833;-82
2023/04/01 02:49:11;;;;;;;2.50;0.90;;;;;;;;;;4993525;28;20526;-85
2023/04/01 02:51:38;;;;;;;2.40;1.03;;;;;;;;;;4995037;28;20448;-86
2023/04/01 02:54:04;;;;;;;7.10;1.13;;;;;;;;;;4993488;28;20428;-82
2023/04/01 02:56:30;;;;;;;2.63;1.40;;;;;;;;;;4994714;28;20919;-82
2023/04/01 02:58:56;;;;;;;4.33;1.40;;;;;;;;;;4994242;28;20506;-83
2023/04/01 03:01:22;;;;;;;3.70;1.27;;;;;;;;;;4992636;28;20428;-83
2023/04/01 03:03:49;;;;;;;2.73;1.10;;;;;;;;;;4993394;28;20433;-82
2023/04/01 03:06:17;;;;;;;5.80;1.97;;;;;;;;;;4994530;28;20426;-82
2023/04/01 03:08:43;;;;;;;4.47;1.43;;;;;;;;;;4993908;28;20416;-82
2023/04/01 03:11:11;;;;;;;3.00;0.60;;;;;;;;;;4994591;28;20416;-82
2023/04/01 03:13:37;;;;;;;5.07;1.20;;;;;;;;;;4992692;28;20413;-83
2023/04/01 03:16:03;;;;;;;3.37;1.37;;;;;;;;;;5009003;28;20417;-79
2023/04/01 03:18:29;;;;;;;4.30;1.03;;;;;;;;;;4993744;28;20944;-82
2023/04/01 03:20:55;;;;;;;5.80;1.83;;;;;;;;;;5008628;28;20864;-81
2023/04/01 03:23:21;;;;;;;2.53;1.33;;;;;;;;;;4993956;28;20519;-82
2023/04/01 03:25:48;;;;;;;2.57;1.13;;;;;;;;;;5009173;28;20433;-82
2023/04/01 03:28:14;;;;;;;4.97;1.50;;;;;;;;;;5008702;28;20448;-81
2023/04/01 03:30:40;;;;;;;2.07;0.70;;;;;;;;;;5009138;28;20450;-82
2023/04/01 03:33:06;;;;;;;3.67;1.40;;;;;;;;;;5009154;28;20457;-81
2023/04/01 03:35:32;;;;;;;4.40;1.57;;;;;;;;;;4994054;28;20407;-82
2023/04/01 03:37:58;;;;;;;3.20;1.60;;;;;;;;;;4993929;28;20504;-81
2023/04/01 03:40:26;;;;;;;4.40;2.00;;;;;;;;;;5024677;28;20469;-82
2023/04/01 03:42:52;;;;;;;2.57;1.17;;;;;;;;;;4993336;28;20413;-82
2023/04/01 03:45:22;;;;;;;5.53;2.43;;;;;;;;;;4992591;28;20425;-82
2023/04/01 03:47:47;;;;;;;3.60;1.37;;;;;;;;;;5008873;28;20861;-82
2023/04/01 03:50:15;;;;;;;5.80;2.63;;;;;;;;;;5008102;28;20527;-81
2023/04/01 03:52:41;;;;;;;4.37;1.67;;;;;;;;;;4993717;28;20411;-82
2023/04/01 03:55:19;;;;;;;4.33;1.17;;;;;;;;;;4993696;28;20442;-82
2023/04/01 03:57:45;;;;;;;4.40;1.83;;;;;;;;;;4992373;28;20488;-82
2023/04/01 04:00:12;;;;;;;3.03;1.30;;;;;;;;;;4993320;28;20426;-81
2023/04/01 04:02:38;;;;;;;2.53;1.23;;;;;;;;;;4993564;28;20176;-82
2023/04/01 04:05:06;;;;;;;4.67;2.50;;;;;;;;;;4993617;28;20421;-83
2023/04/01 04:07:34;;;;;;;3.30;1.57;;;;;;;;;;4993381;28;20792;-80
2023/04/01 04:10:00;;;;;;;4.40;2.63;;;;;;;;;;4993587;28;20419;-82
2023/04/01 04:12:26;;;;;;;3.57;1.63;;;;;;;;;;4992143;28;20424;-83
2023/04/01 04:14:52;;;;;;;3.00;1.30;;;;;;;;;;4992414;28;20621;-82
2023/04/01 04:17:18;;;;;;;6.93;2.20;;;;;;;;;;4991945;28;20420;-82
2023/04/01 04:19:44;;;;;;;3.80;1.63;;;;;;;;;;4992349;28;20479;-80
2023/04/01 04:22:10;;;;;;;9.80;3.43;;;;;;;;;;4992251;28;20425;-83
2023/04/01 04:24:36;;;;;;;4.10;2.00;;;;;;;;;;4992062;28;20510;-83
2023/04/01 04:27:03;;;;;;;6.93;2.10;;;;;;;;;;4993014;28;20413;-83
2023/04/01 04:29:29;;;;;;;4.33;2.30;;;;;;;;;;4993033;28;20420;-81
2023/04/01 04:31:58;;;;;;;7.73;2.90;;;;;;;;;;4991944;28;20754;-82
2023/04/01 04:34:26;;;;;;;6.37;2.17;;;;;;;;;;4993108;28;20425;-84
2023/04/01 04:36:52;;;;;;;6.37;3.33;;;;;;;;;;5008348;28;20523;-85
2023/04/01 04:39:18;;;;;;;3.80;2.00;;;;;;;;;;4992566;28;20579;-84
2023/04/01 04:41:44;;;;;;;6.57;2.13;;;;;;;;;;4993165;28;20454;-86
2023/04/01 04:44:18;;;;;;;5.10;2.50;;;;;;;;;;4992369;28;20424;-79
2023/04/01 04:46:44;;;;;;;3.63;2.20;;;;;;;;;;4991654;28;20463;-83
2023/04/01 04:49:10;;;;;;;5.30;1.90;;;;;;;;;;4992235;28;20913;-80
2023/04/01 04:51:44;;;;;;;3.60;2.53;;;;;;;;;;4992854;28;20421;-81
2023/04/01 04:54:11;;;;;;;3.53;1.70;;;;;;;;;;4992913;28;20428;-83
2023/04/01 04:56:38;;;;;;;5.37;2.27;;;;;;;;;;4991714;28;20417;-83
2023/04/01 04:59:06;;;;;;;4.17;1.97;;;;;;;;;;4991295;28;20481;-85
2023/04/01 05:01:33;;;;;;;6.20;3.27;;;;;;;;;;4992995;28;20416;-85
2023/04/01 05:04:00;;;;;;;3.27;2.00;;;;;;;;;;4992805;28;20428;-85
2023/04/01 05:06:29;;;;;;;6.30;3.37;;;;;;;;;;4993065;28;20413;-85
2023/04/01 05:09:05;;;;;;;4.50;2.30;;;;;;;;;;4991954;28;20778;-86
2023/04/01 05:11:31;;;;;;;4.20;2.00;;;;;;;;;;4992833;28;20871;-80
2023/04/01 05:14:00;;;;;;;3.63;2.17;;;;;;;;;;4990389;28;20514;-84
2023/04/01 05:16:27;;;;;;;6.40;2.90;;;;;;;;;;4992891;28;20416;-86
2023/04/01 05:18:53;;;;;;;3.07;2.17;;;;;;;;;;4990964;28;20485;-85
2023/04/01 05:21:20;;;;;;;4.03;1.50;;;;;;;;;;4991532;28;20429;-86
2023/04/01 05:23:48;;;;;;;4.10;1.80;;;;;;;;;;4992875;28;20413;-86
2023/04/01 05:26:18;;;;;;;4.30;1.83;;;;;;;;;;4995570;28;20431;-83
2023/04/01 05:28:44;;;;;;;4.07;1.83;;;;;;;;;;4995839;28;20417;-85
2023/04/01 05:31:14;;;;;;;3.17;1.20;;;;;;;;;;4996140;28;20424;-85
2023/04/01 05:33:43;;;;;;;6.33;1.60;;;;;;;;;;4996493;28;20490;-84
2023/04/01 05:36:26;;;;;;;5.17;2.03;;;;;;;;;;4996018;28;20425;-84
2023/04/01 05:38:56;;;;;;;2.80;1.23;;;;;;;;;;4995452;28;21036;-84
2023/04/01 05:41:23;;;;;;;4.53;2.10;;;;;;;;;;4994828;28;20417;-84
2023/04/01 05:43:49;;;;;;;4.88;2.25;;;;;;;;;;4993759;28;20516;-85
2023/04/01 05:46:16;;;;;;;5.63;2.60;;;;;;;;;;4993997;28;20180;-86
2023/04/01 05:48:42;;;;;;;4.40;1.97;;;;;;;;;;4994513;28;20505;-84
2023/04/01 05:51:13;;;;;;;4.83;3.17;;;;;;;;;;4995319;28;20893;-85
2023/04/01 05:53:43;;;;;;;4.43;2.73;;;;;;;;;;4995903;28;20448;-83
2023/04/01 05:56:10;;;;;;;3.07;1.60;;;;;;;;;;4995815;28;20575;-84
2023/04/01 05:58:44;;;;;;;1.20;0.40;;;;;;;;;;4995422;28;20469;-85
2023/04/01 06:01:11;;;;;;;2.00;0.50;;;;;;;;;;4995785;28;20415;-86
2023/04/01 06:03:57;;;;;;;1.17;0.20;;;;;;;;;;4995820;28;20399;-87
2023/04/01 06:06:33;;;;;;;0.60;0.20;;;;;;;;;;4995846;28;20417;-85
2023/04/01 06:09:09;;;;;;;0.70;0.20;;;;;;;;;;4994473;28;20514;-84
2023/04/01 06:11:41;;;;;;;0.50;0.20;;;;;;;;;;4994489;28;20868;-79
2023/04/01 06:14:19;;;;;;;0.45;0.20;;;;;;;;;;4994286;28;20425;-82
2023/04/01 06:16:57;;;;;;;0.60;0.20;;;;;;;;;;4994157;28;20180;-81
2023/04/01 06:19:43;;;;;;;1.90;0.20;;;;;;;;;;4994750;28;20822;-84
2023/04/01 06:22:44;;;;;;;0.50;0.20;;;;;;;;;;4994164;28;20810;-84
2023/04/01 06:25:22;;;;;;;0.50;0.10;;;;;;;;;;4973775;28;20417;-83
2023/04/01 06:28:07;;;;;;;0.70;0.20;;;;;;;;;;4991968;28;20859;-86
2023/04/01 06:30:33;;;;;;;1.10;0.30;;;;;;;;;;4995295;28;20411;-84
2023/04/01 06:33:23;;;;;;;1.00;0.30;;;;;;;;;;4995155;28;20411;-84
2023/04/01 06:35:52;;;;;;;1.00;0.30;;;;;;;;;;4994794;28;20202;-83
2023/04/01 06:38:29;;;;;;;0.57;0.20;;;;;;;;;;4993258;28;20466;-82
2023/04/01 06:41:06;;;;;;;0.50;0.20;;;;;;;;;;4995034;28;20517;-84
2023/04/01 06:43:42;;;;;;;1.50;0.27;;;;;;;;;;4992940;28;20459;-79
2023/04/01 06:46:26;;;;;;;0.50;0.20;;;;;;;;;;4994037;28;20425;-82
2023/04/01 06:49:03;;;;;;;0.83;0.50;;;;;;;;;;4995163;28;20414;-81
2023/04/01 06:51:39;;;;;;;0.93;0.20;;;;;;;;;;4993839;28;20899;-80
2023/04/01 06:54:13;;;;;;;2.77;0.33;;;;;;;;;;4993676;28;20515;-81
2023/04/01 06:56:46;;;;;;;0.77;0.30;;;;;;;;;;4994961;28;20425;-81
2023/04/01 06:59:21;;;;;;;0.90;0.20;;;;;;;;;;4992371;28;20477;-82
2023/04/01 07:02:01;;;;;;;0.40;0.20;;;;;;;;;;4993986;28;20485;-82
2023/04/01 07:04:30;;;;;;;0.50;0.20;;;;;;;;;;4993674;28;20426;-82
2023/04/01 07:07:11;;;;;;;0.63;0.23;;;;;;;;;;4994762;28;20775;-81
2023/04/01 07:09:43;;;;;;;2.10;0.30;;;;;;;;;;4993413;28;20456;-81
2023/04/01 07:12:27;;;;;;;0.80;0.20;;;;;;;;;;4993598;28;21042;-81
2023/04/01 07:14:56;;;;;;;1.33;0.50;;;;;;;;;;4995950;28;20430;-82
2023/04/01 07:17:23;;;;;;;0.53;0.20;;;;;;;;;;4993403;28;20448;-81
2023/04/01 07:20:02;;;;;;;0.53;0.20;;;;;;;;;;4993208;28;20558;-80
2023/04/01 07:22:38;;;;;;;0.63;0.20;;;;;;;;;;4994553;28;20415;-81
2023/04/01 07:25:33;;;;;;;1.37;0.30;;;;;;;;;;4993108;28;20486;-81
2023/04/01 07:28:02;;;;;;;2.00;0.30;;;;;;;;;;4992689;28;20947;-80
2023/04/01 07:30:34;;;;;;;0.97;0.20;;;;;;;;;;4993529;28;20900;-81
2023/04/01 07:33:00;;;;;;;1.47;0.30;;;;;;;;;;4992840;28;20509;-79
2023/04/01 07:35:31;;;;;;;0.40;0.20;;;;;;;;;;4991008;28;20518;-79
2023/04/01 07:38:08;;;;;;;0.90;0.20;;;;;;;;;;4991747;28;20242;-80
2023/04/01 07:40:44;;;;;;;0.87;0.20;;;;;;;;;;4993216;28;20873;-79
2023/04/01 07:43:15;;;;;;;0.50;0.20;;;;;;;;;;4992579;28;20429;-79
2023/04/01 07:45:52;;;;;;;0.40;0.20;;;;;;;;;;4993145;28;20448;-80
2023/04/01 07:48:37;;;;;;;0.50;0.20;;;;;;;;;;4993655;28;20453;-80
2023/04/01 07:51:03;;;;;;;0.83;0.33;;;;;;;;;;4992685;28;20913;-80
2023/04/01 07:53:51;;;;;;;0.47;0.20;;;;;;;;;;4992772;28;20507;-81
2023/04/01 07:56:36;;;;;;;0.40;0.20;;;;;;;;;;4992696;28;20425;-80
2023/04/01 07:59:18;;;;;;;0.50;0.20;;;;;;;;;;4993447;28;20475;-80
2023/04/01 08:02:11;;;;;;;1.57;0.20;;;;;;;;;;4993857;28;20440;-81
2023/04/01 08:04:56;;;;;;;0.50;0.20;;;;;;;;;;4992601;28;20905;-81
2023/04/01 08:07:25;;;;;;;0.30;0.20;;;;;;;;;;4993839;28;20402;-81
2023/04/01 08:09:54;;;;;;;0.57;0.20;;;;;;;;;;4993837;28;20496;-81
2023/04/01 08:12:20;;;;;;;0.90;0.30;;;;;;;;;;4993371;28;20401;-79
2023/04/01 08:15:05;;;;;;;0.73;0.10;;;;;;;;;;4992406;28;20424;-80
2023/04/01 08:17:37;;;;;;;0.30;0.20;;;;;;;;;;4992378;28;20192;-82
2023/04/01 08:20:23;;;;;;;0.80;0.20;;;;;;;;;;4993609;28;20787;-80
2023/04/01 08:23:13;;;;;;;0.60;0.20;;;;;;;;;;4993909;28;20433;-81
2023/04/01 08:25:48;;;;;;;0.87;0.20;;;;;;;;;;5003474;28;20544;-81
2023/04/01 08:28:18;;;;;;;1.30;0.20;;;;;;;;;;4993285;28;20413;-81
2023/04/01 08:30:46;;;;;;;0.50;0.33;;;;;;;;;;4993170;28;20501;-81
2023/04/01 08:33:17;;;;;;;0.97;0.30;;;;;;;;;;4992059;28;20430;-81
2023/04/01 08:35:55;;;;;;;0.40;0.20;;;;;;;;;;4993514;28;20421;-81
2023/04/01 08:38:33;;;;;;;0.30;0.20;;;;;;;;;;4993349;28;20469;-80
2023/04/01 08:41:18;;;;;;;0.40;0.20;;;;;;;;;;4993445;28;20479;-81
2023/04/01 08:44:12;;;;;;;0.87;0.60;;;;;;;;;;4991787;28;20793;-82
2023/04/01 08:46:47;;;;;;;0.30;0.20;;;;;;;;;;4992130;28;20450;-79
2023/04/01 08:49:32;;;;;;;0.50;0.20;;;;;;;;;;4993294;28;20420;-82
2023/04/01 08:52:16;;;;;;;0.40;0.20;;;;;;;;;;4993348;28;20448;-79
2023/04/01 08:54:56;;;;;;;0.40;0.20;;;;;;;;;;4991968;28;20497;-81
2023/04/01 08:57:30;;;;;;;0.97;0.20;;;;;;;;;;4991683;28;20409;-81
2023/04/01 09:00:06;;;;;;;0.57;0.40;;;;;;;;;;4994071;28;20484;-80
2023/04/01 09:02:43;;;;;;;0.63;0.30;;;;;;;;;;4995831;28;20933;-81
2023/04/01 09:05:10;;;;;;;1.40;0.40;;;;;;;;;;4996100;28;20430;-81
2023/04/01 09:07:50;;;;;;;0.60;0.23;;;;;;;;;;4995700;28;20423;-79
2023/04/01 09:10:33;;;;;;;0.30;0.20;;;;;;;;;;4995781;28;20441;-80
2023/04/01 09:13:06;;;;;;;1.00;0.20;;;;;;;;;;4995434;28;20446;-80
2023/04/01 09:15:50;;;;;;;0.60;0.20;;;;;;;;;;4996859;28;20433;-79
2023/04/01 09:18:36;;;;;;;0.50;0.20;;;;;;;;;;4996904;28;20464;-80
2023/04/01 09:21:13;;;;;;;0.40;0.20;;;;;;;;;;4995514;28;20814;-80
2023/04/01 09:23:49;;;;;;;0.50;0.20;;;;;;;;;;4996734;28;20423;-79
2023/04/01 09:26:38;;;;;;;0.70;0.20;;;;;;;;;;4996751;28;20451;-79
2023/04/01 09:29:10;;;;;;;0.30;0.20;;;;;;;;;;4995076;28;20459;-80
2023/04/01 09:31:52;;;;;;;0.30;0.20;;;;;;;;;;4995424;28;20425;-80
2023/04/01 09:34:36;;;;;;;1.13;0.20;;;;;;;;;;4995338;28;20990;-80
2023/04/01 09:37:17;;;;;;;0.53;0.20;;;;;;;;;;4996523;28;20425;-80
2023/04/01 09:39:56;;;;;;;0.53;0.23;;;;;;;;;;4994912;28;20891;-81
2023/04/01 09:42:33;;;;;;;0.30;0.20;;;;;;;;;;4996327;28;20429;-78
2023/04/01 09:45:02;;;;;;;0.57;0.23;;;;;;;;;;4995173;28;20807;-80
2023/04/01 09:47:46;;;;;;;1.03;0.30;;;;;;;;;;4996328;28;20445;-80
2023/04/01 09:50:15;;;;;;;0.40;0.20;;;;;;;;;;4995028;28;20597;-81
2023/04/01 09:52:47;;;;;;;0.40;0.20;;;;;;;;;;4996275;28;20422;-81
2023/04/01 09:55:25;;;;;;;0.67;0.20;;;;;;;;;;4996217;28;20426;-81
2023/04/01 09:58:15;;;;;;;1.53;0.30;;;;;;;;;;4994356;28;20790;-79
2023/04/01 10:00:54;;;;;;;0.40;0.20;;;;;;;;;;4996057;28;20433;-81
2023/04/01 10:03:38;;;;;;;0.67;0.20;;;;;;;;;;4994866;28;20426;-80
2023/04/01 10:06:23;;;;;;;0.40;0.20;;;;;;;;;;4995944;28;20762;-80
2023/04/01 10:09:07;;;;;;;0.80;0.30;;;;;;;;;;4995914;28;20472;-80
2023/04/01 10:11:36;;;;;;;0.50;0.20;;;;;;;;;;4995647;28;20778;-79
2023/04/01 10:14:19;;;;;;;0.63;0.20;;;;;;;;;;4995400;28;20443;-80
2023/04/01 10:17:00;;;;;;;0.97;0.20;;;;;;;;;;4995872;28;20443;-79
2023/04/01 10:19:45;;;;;;;0.50;0.20;;;;;;;;;;4995609;28;20476;-81
2023/04/01 10:22:23;;;;;;;1.00;0.30;;;;;;;;;;4995755;28;20788;-79
2023/04/01 10:25:13;;;;;;;1.03;0.20;;;;;;;;;;4995674;28;20421;-80
2023/04/01 10:27:44;;;;;;;0.50;0.20;;;;;;;;;;4981469;28;20437;-80
2023/04/01 10:30:21;;;;;;;0.70;0.20;;;;;;;;;;4995388;28;20413;-81
2023/04/01 10:32:55;;;;;;;0.40;0.20;;;;;;;;;;5009529;28;20418;-80
2023/04/01 10:35:29;;;;;;;0.30;0.20;;;;;;;;;;4995163;28;20446;-81
2023/04/01 10:38:06;;;;;;;0.50;0.20;;;;;;;;;;5010271;28;20425;-79
2023/04/01 10:40:51;;;;;;;0.60;0.20;;;;;;;;;;5010354;28;20981;-79
2023/04/01 10:43:45;;;;;;;0.90;0.23;;;;;;;;;;4994587;28;20477;-77
2023/04/01 10:46:24;;;;;;;0.60;0.20;;;;;;;;;;4995058;28;20449;-81
2023/04/01 10:49:02;;;;;;;0.60;0.20;;;;;;;;;;4993639;28;20422;-79
2023/04/01 10:51:41;;;;;;;0.50;0.30;;;;;;;;;;4994980;28;20414;-81
2023/04/01 10:54:19;;;;;;;0.40;0.20;;;;;;;;;;4993461;28;20422;-78
2023/04/01 10:56:51;;;;;;;1.23;0.20;;;;;;;;;;4993626;28;20413;-79
2023/04/01 10:59:23;;;;;;;1.03;0.20;;;;;;;;;;4993340;28;20481;-80
2023/04/01 11:02:04;;;;;;;0.30;0.20;;;;;;;;;;4992806;28;20952;-80
2023/04/01 11:04:49;;;;;;;0.30;0.20;;;;;;;;;;4994845;28;20423;-79
2023/04/01 11:07:15;;;;;;;1.13;0.30;;;;;;;;;;4994727;28;20427;-81
2023/04/01 11:10:07;;;;;;;1.57;0.20;;;;;;;;;;4993124;28;20575;-81
2023/04/01 11:12:47;;;;;;;0.30;0.20;;;;;;;;;;4994148;28;20416;-77
2023/04/01 11:15:31;;;;;;;0.87;0.30;;;;;;;;;;4993233;28;20767;-79
2023/04/01 11:18:00;;;;;;;1.10;0.20;;;;;;;;;;5008439;28;20418;-78
2023/04/01 11:20:29;;;;;;;0.50;0.20;;;;;;;;;;4993464;28;20518;-79
2023/04/01 11:23:13;;;;;;;1.20;0.20;;;;;;;;;;5008498;28;20411;-78
2023/04/01 11:25:57;;;;;;;1.23;0.20;;;;;;;;;;4993913;28;20419;-78
2023/04/01 11:28:35;;;;;;;0.60;0.20;;;;;;;;;;4989916;28;20757;-79
2023/04/01 11:31:20;;;;;;;0.60;0.20;;;;;;;;;;4993886;28;20940;-79
2023/04/01 11:34:05;;;;;;;1.23;0.30;;;;;;;;;;4993155;28;20410;-80
2023/04/01 11:36:43;;;;;;;0.60;0.20;;;;;;;;;;5008892;28;20572;-79
2023/04/01 11:39:28;;;;;;;1.00;0.20;;;;;;;;;;4992480;28;20891;-79
2023/04/01 11:42:04;;;;;;;1.20;0.37;;;;;;;;;;5008244;28;20417;-79
2023/04/01 11:44:31;;;;;;;1.03;0.30;;;;;;;;;;4993533;28;20420;-79
2023/04/01 11:46:59;;;;;;;1.97;0.67;;;;;;;;;;4993457;28;20498;-81
2023/04/01 11:49:40;;;;;;;1.00;0.60;;;;;;;;;;4992555;28;20446;-80
2023/04/01 11:52:18;;;;;;;1.13;0.20;;;;;;;;;;4992517;28;20412;-79
2023/04/01 11:54:47;;;;;;;1.83;0.50;;;;;;;;;;5007589;28;20429;-81
2023/04/01 11:57:33;;;;;;;1.23;0.47;;;;;;;;;;4992050;28;20933;-80
2023/04/01 12:00:20;;;;;;;1.23;0.70;;;;;;;;;;4985878;28;20473;-78
2023/04/01 12:03:04;;;;;;;1.10;0.33;;;;;;;;;;4985220;28;20770;-81
2023/04/01 12:05:51;;;;;;;1.73;0.73;;;;;;;;;;5007077;28;20473;-81
2023/04/01 12:08:35;;;;;;;3.77;0.43;;;;;;;;;;4992102;28;20418;-82
2023/04/01 12:11:15;;;;;;;0.70;0.47;;;;;;;;;;4991927;28;20430;-81
2023/04/01 12:14:13;;;;;;;1.17;0.60;;;;;;;;;;4991632;28;21038;-80
2023/04/01 12:16:55;;;;;;;2.00;0.70;;;;;;;;;;4992209;28;20423;-81
2023/04/01 12:19:45;;;;;;;2.80;1.00;;;;;;;;;;4992149;28;20476;-81
2023/04/01 12:22:23;;;;;;;1.57;0.50;;;;;;;;;;4993594;28;20411;-80
2023/04/01 12:24:56;;;;;;;2.47;0.97;;;;;;;;;;4993529;28;20457;-80
2023/04/01 12:27:41;;;;;;;1.93;0.70;;;;;;;;;;4992358;28;20414;-78
2023/04/01 12:30:14;;;;;;;2.67;0.63;;;;;;;;;;4992764;28;20419;-79
2023/04/01 12:32:52;;;;;;;1.17;0.60;;;;;;;;;;4992540;28;20415;-80
2023/04/01 12:35:37;;;;;;;3.20;0.60;;;;;;;;;;4993414;28;20478;-79
2023/04/01 12:38:06;;;;;;;2.37;0.70;;;;;;;;;;5010563;28;20426;-82
2023/04/01 12:40:35;;;;;;;2.50;1.20;;;;;;;;;;5010670;28;20509;-81
2023/04/01 12:43:15;;;;;;;1.83;0.70;;;;;;;;;;4995923;28;20405;-80
2023/04/01 12:46:03;;;;;;;2.30;0.70;;;;;;;;;;4996181;28;20575;-81
2023/04/01 12:48:35;;;;;;;1.40;0.67;;;;;;;;;;5000505;28;20441;-79
2023/04/01 12:51:16;;;;;;;1.93;0.60;;;;;;;;;;5011115;28;20472;-82
2023/04/01 12:53:45;;;;;;;2.43;0.60;;;;;;;;;;4995867;28;20504;-81
2023/04/01 12:56:20;;;;;;;1.83;0.83;;;;;;;;;;4995535;28;20417;-80
2023/04/01 12:59:05;;;;;;;2.77;0.73;;;;;;;;;;5010721;28;20484;-78
2023/04/01 13:01:42;;;;;;;1.33;1.13;;;;;;;;;;4995791;28;20817;-78
2023/04/01 13:04:20;;;;;;;2.70;0.97;;;;;;;;;;5009799;28;20412;-80
2023/04/01 13:06:46;;;;;;;1.90;0.77;;;;;;;;;;5011124;28;20431;-80
2023/04/01 13:09:20;;;;;;;2.20;0.30;;;;;;;;;;5010670;28;20413;-78
2023/04/01 13:11:52;;;;;;;1.87;1.00;;;;;;;;;;5011015;28;20228;-79
2023/04/01 13:14:37;;;;;;;5.50;1.40;;;;;;;;;;5011824;28;20405;-80
2023/04/01 13:17:10;;;;;;;1.73;1.10;;;;;;;;;;5011703;28;20417;-81
2023/04/01 13:19:36;;;;;;;4.23;1.27;;;;;;;;;;4996495;28;20541;-80
2023/04/01 13:22:06;;;;;;;2.20;1.13;;;;;;;;;;4996673;28;20413;-82
2023/04/01 13:24:45;;;;;;;2.10;0.97;;;;;;;;;;5011639;28;20223;-82
2023/04/01 13:27:19;;;;;;;1.80;1.00;;;;;;;;;;4996228;28;20462;-81
2023/04/01 13:29:45;;;;;;;2.10;0.70;;;;;;;;;;4995063;28;20433;-80
2023/04/01 13:32:34;;;;;;;3.40;0.80;;;;;;;;;;4995871;28;20497;-80
2023/04/01 13:35:06;;;;;;;1.57;0.70;;;;;;;;;;4996073;28;20190;-78
2023/04/01 13:37:43;;;;;;;2.90;0.80;;;;;;;;;;4995577;28;20413;-81
2023/04/01 13:40:30;;;;;;;1.30;0.83;;;;;;;;;;4994704;28;20969;-82
2023/04/01 13:43:02;;;;;;;1.67;0.97;;;;;;;;;;4995798;28;20411;-78
2023/04/01 13:45:41;;;;;;;1.20;0.80;;;;;;;;;;4994447;28;20478;-82
2023/04/01 13:48:20;;;;;;;1.67;0.57;;;;;;;;;;4996517;28;20903;-79
2023/04/01 13:50:46;;;;;;;1.90;0.43;;;;;;;;;;4994666;28;20512;-78
2023/04/01 13:53:35;;;;;;;1.60;0.60;;;;;;;;;;4991059;28;20445;-79
2023/04/01 13:56:02;;;;;;;3.87;1.43;;;;;;;;;;4990685;28;20443;-77
2023/04/01 13:58:46;;;;;;;2.50;0.80;;;;;;;;;;4993419;28;20462;-78
2023/04/01 14:01:20;;;;;;;1.27;0.67;;;;;;;;;;4993653;28;20415;-80
2023/04/01 14:04:04;;;;;;;0.70;0.33;;;;;;;;;;4992737;28;20552;-79
2023/04/01 14:06:46;;;;;;;5.20;0.57;;;;;;;;;;5009623;28;20427;-80
2023/04/01 14:09:26;;;;;;;1.57;0.53;;;;;;;;;;4993689;28;20976;-77
2023/04/01 14:11:52;;;;;;;2.50;1.20;;;;;;;;;;4994260;28;20761;-78
2023/04/01 14:14:29;;;;;;;2.70;1.10;;;;;;;;;;4994360;28;20447;-78
2023/04/01 14:17:15;;;;;;;2.13;0.60;;;;;;;;;;4994341;28;20421;-79
2023/04/01 14:19:50;;;;;;;2.00;0.70;;;;;;;;;;4994291;28;20476;-78
2023/04/01 14:22:24;;;;;;;2.70;1.50;;;;;;;;;;4994413;28;20420;-78
2023/04/01 14:25:04;;;;;;;2.60;1.00;;;;;;;;;;4994072;28;20414;-79
2023/04/01 14:27:40;;;;;;;2.10;0.83;;;;;;;;;;4993942;28;20416;-79
2023/04/01 14:30:18;;;;;;;2.13;0.97;;;;;;;;;;4994447;28;20419;-80
2023/04/01 14:32:55;;;;;;;2.20;1.63;;;;;;;;;;4994501;28;20779;-79
2023/04/01 14:35:38;;;;;;;3.33;0.90;;;;;;;;;;5037115;23;21017;-80
2023/04/01 14:38:24;;;;;;;2.53;0.90;;;;;;;;;;4973866;28;20427;-82
2023/04/01 14:40:56;;;;;;;1.33;0.63;;;;;;;;;;4990570;28;20438;-82
2023/04/01 14:43:31;;;;;;;4.17;1.50;;;;;;;;;;4990334;28;20488;-81
2023/04/01 14:46:11;;;;;;;3.90;1.63;;;;;;;;;;4975485;28;20421;-81
2023/04/01 14:48:51;;;;;;;2.30;1.00;;;;;;;;;;4975638;28;20878;-82
2023/04/01 14:51:21;;;;;;;2.20;1.17;;;;;;;;;;4990492;28;20451;-82
2023/04/01 14:53:57;;;;;;;1.73;1.03;;;;;;;;;;4973491;28;20432;-80
2023/04/01 14:56:47;;;;;;;3.90;1.20;;;;;;;;;;4989340;28;20441;-81
2023/04/01 14:59:22;;;;;;;3.17;1.40;;;;;;;;;;4986582;28;20563;-80
2023/04/01 15:01:55;;;;;;;2.80;1.30;;;;;;;;;;4989787;28;20795;-79
2023/04/01 15:04:43;;;;;;;4.23;1.23;;;;;;;;;;4988418;28;20534;-82
2023/04/01 15:07:22;;;;;;;4.63;1.57;;;;;;;;;;4989314;28;20409;-81
2023/04/01 15:10:06;;;;;;;1.53;0.93;;;;;;;;;;4989214;28;20428;-82
2023/04/01 15:12:55;;;;;;;3.73;1.40;;;;;;;;;;4974831;28;21309;-80
2023/04/01 15:15:29;;;;;;;3.07;1.70;;;;;;;;;;4990006;28;20424;-82
2023/04/01 15:17:58;;;;;;;2.53;1.17;;;;;;;;;;4989898;28;20425;-80
2023/04/01 15:20:32;;;;;;;3.90;0.90;;;;;;;;;;4989688;28;20490;-80
2023/04/01 15:23:00;;;;;;;4.87;1.83;;;;;;;;;;4975046;28;20502;-79
2023/04/01 15:25:29;;;;;;;3.80;1.97;;;;;;;;;;4989766;28;20417;-80
2023/04/01 15:28:19;;;;;;;6.13;1.80;;;;;;;;;;4974378;28;20408;-80